Wetterdaten: Woche 31.03.14 - 06.04.14 (KW14)
Datum Zeit Temp. Aussen +5cm Feuchte Auss Luftdruck Regen Sonnenschein Regendauer UV Solar Windben
31.03.2014 00:00 10,3 C 7,8 C 79 % 1014,8 hPa 0,0 l/m 0,00 h 0,00 h 0,0 UV-I 0 W/m 0,0 km/h (0 Bft)
31.03.2014 01:00 9,8 C 7,8 C 81 % 1014,6 hPa 0,0 l/m 0,00 h 0,00 h 0,0 UV-I 0 W/m 0,0 km/h (0 Bft)
31.03.2014 02:00 9,3 C 7,1 C 83 % 1014,3 hPa 0,0 l/m 0,00 h 0,00 h 0,0 UV-I 0 W/m 0,0 km/h (0 Bft)
31.03.2014 03:00 8,6 C 6,7 C 85 % 1014,3 hPa 0,0 l/m 0,00 h 0,00 h 0,0 UV-I 0 W/m 0,0 km/h (0 Bft)
31.03.2014 04:00 8,2 C 6,5 C 86 % 1014,2 hPa 0,0 l/m 0,00 h 0,00 h 0,0 UV-I 0 W/m 0,0 km/h (0 Bft)
31.03.2014 05:00 8,0 C 6,1 C 88 % 1013,9 hPa 0,0 l/m 0,00 h 0,00 h 0,0 UV-I 0 W/m 0,0 km/h (0 Bft)
31.03.2014 06:00 8,0 C 6,2 C 89 % 1013,8 hPa 0,0 l/m 0,00 h 0,00 h 0,0 UV-I 0 W/m 0,0 km/h (0 Bft)
31.03.2014 07:00 8,4 C 6,8 C 88 % 1014,0 hPa 0,0 l/m 0,00 h 0,00 h 0,0 UV-I 9 W/m 0,0 km/h (0 Bft)
31.03.2014 08:00 9,3 C 7,7 C 86 % 1014,3 hPa 0,0 l/m 0,00 h 0,00 h 0,0 UV-I 32 W/m 0,0 km/h (0 Bft)
31.03.2014 09:00 11,1 C 9,9 C 81 % 1014,6 hPa 0,0 l/m 0,10 h 0,00 h 0,0 UV-I 150 W/m 0,9 km/h (0 Bft)
31.03.2014 10:00 13,7 C 12,4 C 74 % 1014,9 hPa 0,0 l/m 0,50 h 0,00 h 0,0 UV-I 267 W/m 1,1 km/h (0 Bft)
31.03.2014 11:00 16,0 C 15,0 C 65 % 1014,9 hPa 0,0 l/m 0,97 h 0,00 h 0,6 UV-I 356 W/m 1,2 km/h (1 Bft)
31.03.2014 12:00 18,4 C 17,6 C 59 % 1014,6 hPa 0,0 l/m 0,93 h 0,00 h 1,1 UV-I 479 W/m 2,8 km/h (1 Bft)
31.03.2014 13:00 19,7 C 18,8 C 54 % 1014,2 hPa 0,0 l/m 0,40 h 0,00 h 0,8 UV-I 370 W/m 2,3 km/h (1 Bft)
31.03.2014 14:00 20,8 C 20,2 C 49 % 1013,8 hPa 0,0 l/m 0,93 h 0,00 h 1,3 UV-I 486 W/m 5,1 km/h (1 Bft)
31.03.2014 15:00 22,2 C 21,2 C 44 % 1012,9 hPa 0,0 l/m 0,90 h 0,00 h 1,3 UV-I 532 W/m 3,9 km/h (1 Bft)
31.03.2014 16:00 21,8 C 20,5 C 43 % 1012,5 hPa 0,0 l/m 0,53 h 0,00 h 0,7 UV-I 304 W/m 1,6 km/h (1 Bft)
31.03.2014 17:00 22,0 C 20,3 C 42 % 1012,1 hPa 0,0 l/m 0,53 h 0,00 h 0,5 UV-I 261 W/m 2,2 km/h (1 Bft)
31.03.2014 18:00 20,8 C 17,9 C 45 % 1011,9 hPa 0,0 l/m 0,00 h 0,00 h 0,0 UV-I 104 W/m 0,3 km/h (0 Bft)
31.03.2014 19:00 18,8 C 14,7 C 50 % 1011,9 hPa 0,0 l/m 0,10 h 0,00 h 0,0 UV-I 34 W/m 0,0 km/h (0 Bft)
31.03.2014 20:00 16,8 C 12,4 C 54 % 1012,0 hPa 0,0 l/m 0,00 h 0,00 h 0,0 UV-I 5 W/m 0,1 km/h (0 Bft)
31.03.2014 21:00 16,2 C 12,5 C 54 % 1012,1 hPa 0,0 l/m 0,00 h 0,00 h 0,0 UV-I 0 W/m 0,9 km/h (0 Bft)
31.03.2014 22:00 15,1 C 11,9 C 58 % 1012,1 hPa 0,0 l/m 0,00 h 0,00 h 0,0 UV-I 0 W/m 0,2 km/h (0 Bft)
31.03.2014 23:00 14,2 C 11,5 C 62 % 1012,1 hPa 0,0 l/m 0,00 h 0,10 h 0,0 UV-I 0 W/m 1,5 km/h (1 Bft)
01.04.2014 00:00 15,1 C 12,6 C 55 % 1011,7 hPa 0,0 l/m 0,00 h 0,00 h 0,0 UV-I 0 W/m 2,8 km/h (1 Bft)
01.04.2014 01:00 14,6 C 11,8 C 58 % 1011,6 hPa 0,0 l/m 0,00 h 0,00 h 0,0 UV-I 0 W/m 1,5 km/h (1 Bft)
01.04.2014 02:00 13,6 C 11,2 C 61 % 1011,2 hPa 0,0 l/m 0,00 h 0,00 h 0,0 UV-I 0 W/m 2,3 km/h (1 Bft)
01.04.2014 03:00 12,7 C 10,2 C 64 % 1011,1 hPa 0,0 l/m 0,00 h 0,00 h 0,0 UV-I 0 W/m 3,9 km/h (1 Bft)
01.04.2014 04:00 12,2 C 10,0 C 65 % 1011,0 hPa 0,0 l/m 0,00 h 0,00 h 0,0 UV-I 0 W/m 3,0 km/h (1 Bft)
01.04.2014 05:00 11,1 C 8,4 C 69 % 1011,0 hPa 0,0 l/m 0,00 h 0,00 h 0,0 UV-I 0 W/m 0,0 km/h (0 Bft)
01.04.2014 06:00 9,6 C 7,0 C 76 % 1010,9 hPa 0,0 l/m 0,00 h 0,00 h 0,0 UV-I 0 W/m 0,0 km/h (0 Bft)
01.04.2014 07:00 8,9 C 6,4 C 80 % 1010,9 hPa 0,0 l/m 0,00 h 0,00 h 0,0 UV-I 20 W/m 0,0 km/h (0 Bft)
01.04.2014 08:00 10,2 C 8,3 C 78 % 1011,2 hPa 0,0 l/m 0,27 h 0,00 h 0,0 UV-I 91 W/m 0,7 km/h (0 Bft)
01.04.2014 09:00 12,9 C 11,0 C 73 % 1011,5 hPa 0,0 l/m 1,00 h 0,00 h 0,0 UV-I 234 W/m 1,0 km/h (0 Bft)
01.04.2014 10:00 16,0 C 14,1 C 66 % 1011,6 hPa 0,0 l/m 0,97 h 0,00 h 0,5 UV-I 358 W/m 1,8 km/h (1 Bft)
01.04.2014 11:00 17,9 C 17,3 C 62 % 1011,5 hPa 0,0 l/m 0,90 h 0,00 h 0,9 UV-I 443 W/m 1,6 km/h (1 Bft)
01.04.2014 12:00 19,0 C 18,7 C 59 % 1011,3 hPa 0,0 l/m 0,93 h 0,00 h 1,2 UV-I 453 W/m 2,3 km/h (1 Bft)
01.04.2014 13:00 20,3 C 19,7 C 55 % 1010,8 hPa 0,0 l/m 0,97 h 0,00 h 1,3 UV-I 590 W/m 4,8 km/h (1 Bft)
01.04.2014 14:00 21,2 C 20,4 C 51 % 1010,3 hPa 0,0 l/m 0,97 h 0,00 h 1,6 UV-I 548 W/m 6,0 km/h (2 Bft)
01.04.2014 15:00 21,7 C 20,7 C 48 % 1009,7 hPa 0,0 l/m 1,00 h 0,00 h 1,4 UV-I 531 W/m 3,2 km/h (1 Bft)
01.04.2014 16:00 22,0 C 22,4 C 47 % 1009,3 hPa 0,0 l/m 1,00 h 0,00 h 0,8 UV-I 410 W/m 3,4 km/h (1 Bft)
01.04.2014 17:00 21,3 C 19,9 C 50 % 1008,9 hPa 0,0 l/m 0,63 h 0,00 h 0,0 UV-I 248 W/m 5,4 km/h (1 Bft)
01.04.2014 18:00 20,7 C 19,0 C 50 % 1008,9 hPa 0,0 l/m 0,10 h 0,00 h 0,0 UV-I 109 W/m 0,9 km/h (0 Bft)
01.04.2014 19:00 19,4 C 16,5 C 55 % 1008,8 hPa 0,0 l/m 0,00 h 0,00 h 0,0 UV-I 36 W/m 0,2 km/h (0 Bft)
01.04.2014 20:00 16,4 C 12,9 C 66 % 1008,8 hPa 0,0 l/m 0,00 h 0,00 h 0,0 UV-I 6 W/m 0,0 km/h (0 Bft)
01.04.2014 21:00 14,4 C 11,6 C 72 % 1009,0 hPa 0,0 l/m 0,00 h 0,00 h 0,0 UV-I 0 W/m 0,6 km/h (0 Bft)
01.04.2014 22:00 13,2 C 10,3 C 77 % 1009,1 hPa 0,0 l/m 0,00 h 0,00 h 0,0 UV-I 0 W/m 0,0 km/h (0 Bft)
01.04.2014 23:00 12,1 C 9,6 C 81 % 1009,1 hPa 0,0 l/m 0,00 h 0,00 h 0,0 UV-I 0 W/m 0,0 km/h (0 Bft)
02.04.2014 00:00 11,1 C 8,8 C 85 % 1009,0 hPa 0,0 l/m 0,00 h 0,00 h 0,0 UV-I 0 W/m 0,0 km/h (0 Bft)
02.04.2014 01:00 10,3 C 8,0 C 87 % 1008,9 hPa 0,0 l/m 0,00 h 0,00 h 0,0 UV-I 0 W/m 0,0 km/h (0 Bft)
02.04.2014 02:00 9,6 C 7,3 C 89 % 1008,7 hPa 0,0 l/m 0,00 h 0,00 h 0,0 UV-I 0 W/m 0,0 km/h (0 Bft)
02.04.2014 03:00 9,0 C 6,9 C 90 % 1008,5 hPa 0,0 l/m 0,00 h 0,00 h 0,0 UV-I 0 W/m 0,0 km/h (0 Bft)
02.04.2014 04:00 8,1 C 6,3 C 91 % 1008,1 hPa 0,0 l/m 0,00 h 0,00 h 0,0 UV-I 0 W/m 0,0 km/h (0 Bft)
02.04.2014 05:00 7,5 C 5,8 C 93 % 1007,9 hPa 0,0 l/m 0,00 h 0,00 h 0,0 UV-I 0 W/m 0,0 km/h (0 Bft)
02.04.2014 06:00 7,4 C 5,6 C 94 % 1007,8 hPa 0,0 l/m 0,00 h 0,00 h 0,0 UV-I 0 W/m 0,1 km/h (0 Bft)
02.04.2014 07:00 7,5 C 5,8 C 95 % 1007,6 hPa 0,0 l/m 0,00 h 0,00 h 0,0 UV-I 20 W/m 0,0 km/h (0 Bft)
02.04.2014 08:00 8,4 C 7,2 C 94 % 1007,7 hPa 0,0 l/m 0,33 h 0,00 h 0,0 UV-I 95 W/m 3,1 km/h (1 Bft)
02.04.2014 09:00 11,3 C 9,9 C 85 % 1007,5 hPa 0,0 l/m 1,00 h 0,00 h 0,0 UV-I 275 W/m 4,3 km/h (1 Bft)
02.04.2014 10:00 15,0 C 13,3 C 74 % 1007,4 hPa 0,0 l/m 0,87 h 0,00 h 0,6 UV-I 360 W/m 7,6 km/h (2 Bft)
02.04.2014 11:00 18,7 C 17,0 C 62 % 1007,0 hPa 0,0 l/m 1,00 h 0,00 h 1,2 UV-I 546 W/m 10,4 km/h (2 Bft)
02.04.2014 12:00 20,6 C 19,0 C 55 % 1006,3 hPa 0,0 l/m 0,90 h 0,00 h 1,4 UV-I 518 W/m 10,9 km/h (2 Bft)
02.04.2014 13:00 21,5 C 20,1 C 50 % 1005,6 hPa 0,0 l/m 0,70 h 0,00 h 1,3 UV-I 487 W/m 11,4 km/h (2 Bft)
02.04.2014 14:00 22,8 C 22,0 C 46 % 1005,3 hPa 0,0 l/m 1,00 h 0,00 h 1,8 UV-I 584 W/m 11,5 km/h (2 Bft)
02.04.2014 15:00 22,1 C 21,9 C 47 % 1004,6 hPa 0,0 l/m 0,43 h 0,00 h 0,9 UV-I 333 W/m 9,4 km/h (2 Bft)
02.04.2014 16:00 22,3 C 21,5 C 49 % 1004,1 hPa 0,0 l/m 0,67 h 0,00 h 0,7 UV-I 391 W/m 8,8 km/h (2 Bft)
02.04.2014 17:00 22,2 C 20,3 C 48 % 1003,5 hPa 0,0 l/m 0,37 h 0,00 h 0,6 UV-I 217 W/m 4,2 km/h (1 Bft)
02.04.2014 18:00 21,3 C 18,5 C 52 % 1003,4 hPa 0,0 l/m 0,17 h 0,00 h 0,0 UV-I 109 W/m 1,4 km/h (1 Bft)
02.04.2014 19:00 20,5 C 17,0 C 53 % 1003,4 hPa 0,0 l/m 0,10 h 0,00 h 0,0 UV-I 41 W/m 0,8 km/h (0 Bft)
02.04.2014 20:00 17,1 C 13,6 C 66 % 1003,4 hPa 0,0 l/m 0,00 h 0,00 h 0,0 UV-I 5 W/m 0,0 km/h (0 Bft)
02.04.2014 21:00 14,8 C 11,7 C 75 % 1003,6 hPa 0,0 l/m 0,00 h 0,00 h 0,0 UV-I 0 W/m 0,0 km/h (0 Bft)
02.04.2014 22:00 13,3 C 10,9 C 79 % 1003,5 hPa 0,0 l/m 0,00 h 0,00 h 0,0 UV-I 0 W/m 0,1 km/h (0 Bft)
02.04.2014 23:00 12,6 C 10,2 C 82 % 1003,3 hPa 0,0 l/m 0,00 h 0,00 h 0,0 UV-I 0 W/m 0,0 km/h (0 Bft)
03.04.2014 00:00 11,7 C 9,6 C 87 % 1003,2 hPa 0,0 l/m 0,00 h 0,00 h 0,0 UV-I 0 W/m 0,0 km/h (0 Bft)
03.04.2014 01:00 11,0 C 8,9 C 89 % 1003,0 hPa 0,0 l/m 0,00 h 0,00 h 0,0 UV-I 0 W/m 0,0 km/h (0 Bft)
03.04.2014 02:00 10,3 C 8,0 C 89 % 1002,8 hPa 0,0 l/m 0,00 h 0,00 h 0,0 UV-I 0 W/m 0,0 km/h (0 Bft)
03.04.2014 03:00 10,4 C 8,0 C 87 % 1002,7 hPa 0,0 l/m 0,00 h 0,00 h 0,0 UV-I 0 W/m 0,2 km/h (0 Bft)
03.04.2014 04:00 10,8 C 8,8 C 86 % 1002,5 hPa 0,0 l/m 0,00 h 0,00 h 0,0 UV-I 0 W/m 0,3 km/h (0 Bft)
03.04.2014 05:00 10,9 C 9,1 C 85 % 1002,3 hPa 0,0 l/m 0,00 h 0,00 h 0,0 UV-I 0 W/m 0,3 km/h (0 Bft)
03.04.2014 06:00 10,4 C 8,6 C 85 % 1002,2 hPa 0,0 l/m 0,00 h 0,00 h 0,0 UV-I 0 W/m 3,6 km/h (1 Bft)
03.04.2014 07:00 10,6 C 8,9 C 85 % 1002,5 hPa 0,0 l/m 0,00 h 0,00 h 0,0 UV-I 21 W/m 0,6 km/h (0 Bft)
03.04.2014 08:00 11,2 C 9,8 C 84 % 1002,8 hPa 0,0 l/m 0,07 h 0,00 h 0,0 UV-I 91 W/m 0,4 km/h (0 Bft)
03.04.2014 09:00 13,4 C 12,0 C 78 % 1002,7 hPa 0,0 l/m 0,77 h 0,00 h 0,0 UV-I 240 W/m 8,3 km/h (2 Bft)
03.04.2014 10:00 14,9 C 14,2 C 76 % 1002,8 hPa 0,0 l/m 0,23 h 0,00 h 0,6 UV-I 261 W/m 9,3 km/h (2 Bft)
03.04.2014 11:00 19,1 C 17,6 C 64 % 1002,4 hPa 0,0 l/m 1,00 h 0,00 h 1,2 UV-I 482 W/m 9,6 km/h (2 Bft)
03.04.2014 12:00 21,2 C 19,8 C 55 % 1002,3 hPa 0,0 l/m 1,00 h 0,00 h 1,6 UV-I 540 W/m 14,0 km/h (3 Bft)
03.04.2014 13:00 22,3 C 20,9 C 52 % 1002,1 hPa 0,0 l/m 0,87 h 0,00 h 1,5 UV-I 570 W/m 11,8 km/h (2 Bft)
03.04.2014 14:00 22,8 C 21,7 C 49 % 1002,0 hPa 0,0 l/m 0,37 h 0,00 h 1,8 UV-I 416 W/m 10,5 km/h (2 Bft)
03.04.2014 15:00 21,6 C 20,7 C 51 % 1002,5 hPa 0,0 l/m 0,03 h 0,00 h 0,9 UV-I 230 W/m 7,6 km/h (2 Bft)
03.04.2014 16:00 20,2 C 17,7 C 58 % 1002,8 hPa 0,0 l/m 0,00 h 0,43 h 0,5 UV-I 150 W/m 9,6 km/h (2 Bft)
03.04.2014 17:00 19,7 C 17,9 C 58 % 1002,8 hPa 0,0 l/m 0,00 h 0,00 h 0,0 UV-I 111 W/m 1,0 km/h (0 Bft)
03.04.2014 18:00 19,9 C 17,7 C 58 % 1002,9 hPa 0,0 l/m 0,00 h 0,00 h 0,0 UV-I 84 W/m 0,1 km/h (0 Bft)
03.04.2014 19:00 18,7 C 15,5 C 62 % 1003,2 hPa 0,0 l/m 0,00 h 0,00 h 0,0 UV-I 20 W/m 0,0 km/h (0 Bft)
03.04.2014 20:00 17,1 C 13,6 C 68 % 1003,6 hPa 0,0 l/m 0,00 h 0,00 h 0,0 UV-I 5 W/m 0,0 km/h (0 Bft)
03.04.2014 21:00 16,1 C 13,2 C 73 % 1004,0 hPa 0,0 l/m 0,00 h 0,00 h 0,0 UV-I 0 W/m 0,0 km/h (0 Bft)
03.04.2014 22:00 15,7 C 12,8 C 73 % 1004,2 hPa 0,0 l/m 0,00 h 0,00 h 0,0 UV-I 0 W/m 0,1 km/h (0 Bft)
03.04.2014 23:00 15,4 C 12,3 C 73 % 1004,3 hPa 0,0 l/m 0,00 h 0,00 h 0,0 UV-I 0 W/m 0,0 km/h (0 Bft)
04.04.2014 00:00 14,9 C 12,2 C 75 % 1004,6 hPa 0,0 l/m 0,00 h 0,00 h 0,0 UV-I 0 W/m 0,0 km/h (0 Bft)
04.04.2014 01:00 14,2 C 11,8 C 79 % 1004,8 hPa 0,0 l/m 0,00 h 0,00 h 0,0 UV-I 0 W/m 0,0 km/h (0 Bft)
04.04.2014 02:00 13,5 C 10,9 C 79 % 1005,0 hPa 0,0 l/m 0,00 h 0,00 h 0,0 UV-I 0 W/m 0,0 km/h (0 Bft)
04.04.2014 03:00 13,0 C 10,6 C 80 % 1005,2 hPa 0,0 l/m 0,00 h 0,00 h 0,0 UV-I 0 W/m 0,0 km/h (0 Bft)
04.04.2014 04:00 12,8 C 10,6 C 83 % 1005,3 hPa 0,0 l/m 0,00 h 0,00 h 0,0 UV-I 0 W/m 0,0 km/h (0 Bft)
04.04.2014 05:00 12,7 C 10,6 C 83 % 1005,5 hPa 0,0 l/m 0,00 h 0,00 h 0,0 UV-I 0 W/m 0,0 km/h (0 Bft)
04.04.2014 06:00 12,8 C 10,6 C 83 % 1005,7 hPa 0,0 l/m 0,00 h 0,00 h 0,0 UV-I 0 W/m 0,0 km/h (0 Bft)
04.04.2014 07:00 12,6 C 10,6 C 83 % 1006,0 hPa 0,0 l/m 0,00 h 0,00 h 0,0 UV-I 15 W/m 0,1 km/h (0 Bft)
04.04.2014 08:00 12,7 C 11,2 C 85 % 1006,3 hPa 0,0 l/m 0,00 h 0,00 h 0,0 UV-I 34 W/m 0,0 km/h (0 Bft)
04.04.2014 09:00 13,5 C 12,0 C 85 % 1006,5 hPa 0,0 l/m 0,00 h 0,27 h 0,0 UV-I 66 W/m 0,1 km/h (0 Bft)
04.04.2014 10:00 14,4 C 13,5 C 83 % 1006,9 hPa 0,0 l/m 0,00 h 0,00 h 0,0 UV-I 108 W/m 0,0 km/h (0 Bft)
04.04.2014 11:00 15,9 C 15,3 C 75 % 1007,4 hPa 0,0 l/m 0,00 h 0,00 h 0,0 UV-I 192 W/m 0,0 km/h (0 Bft)
04.04.2014 12:00 16,7 C 16,6 C 73 % 1007,8 hPa 0,0 l/m 0,00 h 0,00 h 0,5 UV-I 237 W/m 0,3 km/h (0 Bft)
04.04.2014 13:00 17,4 C 17,5 C 71 % 1007,8 hPa 0,0 l/m 0,00 h 0,00 h 0,6 UV-I 271 W/m 0,9 km/h (0 Bft)
04.04.2014 14:00 17,5 C 17,3 C 72 % 1007,8 hPa 0,0 l/m 0,00 h 0,00 h 0,5 UV-I 236 W/m 2,2 km/h (1 Bft)
04.04.2014 15:00 17,5 C 17,2 C 72 % 1007,8 hPa 0,0 l/m 0,00 h 0,00 h 0,0 UV-I 208 W/m 4,6 km/h (1 Bft)
04.04.2014 16:00 17,3 C 16,7 C 72 % 1007,9 hPa 0,0 l/m 0,00 h 0,00 h 0,0 UV-I 152 W/m 3,4 km/h (1 Bft)
04.04.2014 17:00 16,9 C 15,9 C 74 % 1008,1 hPa 0,0 l/m 0,00 h 0,00 h 0,0 UV-I 109 W/m 5,0 km/h (1 Bft)
04.04.2014 18:00 16,0 C 14,8 C 80 % 1008,4 hPa 0,0 l/m 0,00 h 0,00 h 0,0 UV-I 70 W/m 5,4 km/h (1 Bft)
04.04.2014 19:00 14,9 C 13,6 C 84 % 1009,0 hPa 0,0 l/m 0,00 h 0,00 h 0,0 UV-I 27 W/m 2,8 km/h (1 Bft)
04.04.2014 20:00 13,8 C 12,3 C 86 % 1009,6 hPa 0,0 l/m 0,00 h 0,00 h 0,0 UV-I 6 W/m 0,2 km/h (0 Bft)
04.04.2014 21:00 13,2 C 11,7 C 87 % 1010,2 hPa 0,0 l/m 0,00 h 0,00 h 0,0 UV-I 0 W/m 1,1 km/h (1 Bft)
04.04.2014 22:00 12,7 C 11,4 C 89 % 1010,7 hPa 0,0 l/m 0,00 h 0,00 h 0,0 UV-I 0 W/m 2,1 km/h (1 Bft)
04.04.2014 23:00 12,3 C 11,1 C 90 % 1011,0 hPa 0,0 l/m 0,00 h 0,13 h 0,0 UV-I 0 W/m 4,4 km/h (1 Bft)
05.04.2014 00:00 11,9 C 10,7 C 90 % 1011,2 hPa 0,0 l/m 0,00 h 0,00 h 0,0 UV-I 0 W/m 2,2 km/h (1 Bft)
05.04.2014 01:00 11,5 C 10,2 C 91 % 1011,6 hPa 0,0 l/m 0,00 h 0,00 h 0,0 UV-I 0 W/m 1,6 km/h (1 Bft)
05.04.2014 02:00 11,3 C 10,0 C 91 % 1011,6 hPa 0,0 l/m 0,00 h 0,00 h 0,0 UV-I 0 W/m 3,0 km/h (1 Bft)
05.04.2014 03:00 11,1 C 10,0 C 92 % 1011,6 hPa 0,0 l/m 0,00 h 0,00 h 0,0 UV-I 0 W/m 0,8 km/h (0 Bft)
05.04.2014 04:00 10,9 C 10,0 C 93 % 1012,0 hPa 0,0 l/m 0,00 h 0,00 h 0,0 UV-I 0 W/m 0,2 km/h (0 Bft)
05.04.2014 05:00 10,9 C 10,0 C 93 % 1012,4 hPa 0,0 l/m 0,00 h 0,00 h 0,0 UV-I 0 W/m 0,0 km/h (0 Bft)
05.04.2014 06:00 10,9 C 9,9 C 92 % 1012,8 hPa 0,0 l/m 0,00 h 0,00 h 0,0 UV-I 0 W/m 0,0 km/h (0 Bft)
05.04.2014 07:00 10,4 C 9,4 C 93 % 1013,2 hPa 0,0 l/m 0,00 h 0,00 h 0,0 UV-I 19 W/m 0,2 km/h (0 Bft)
05.04.2014 08:00 10,5 C 10,0 C 93 % 1013,7 hPa 0,0 l/m 0,00 h 0,00 h 0,0 UV-I 63 W/m 0,2 km/h (0 Bft)
05.04.2014 09:00 11,4 C 11,5 C 90 % 1014,2 hPa 0,0 l/m 0,00 h 0,00 h 0,0 UV-I 143 W/m 0,9 km/h (0 Bft)
05.04.2014 10:00 12,7 C 13,0 C 86 % 1014,5 hPa 0,0 l/m 0,07 h 0,00 h 0,0 UV-I 237 W/m 0,4 km/h (0 Bft)
05.04.2014 11:00 14,0 C 14,5 C 82 % 1014,8 hPa 0,0 l/m 0,00 h 0,00 h 0,5 UV-I 263 W/m 1,4 km/h (1 Bft)
05.04.2014 12:00 14,2 C 14,0 C 80 % 1015,1 hPa 0,0 l/m 0,00 h 0,00 h 0,0 UV-I 164 W/m 4,1 km/h (1 Bft)
05.04.2014 13:00 14,8 C 14,9 C 78 % 1015,3 hPa 0,0 l/m 0,00 h 0,00 h 0,7 UV-I 241 W/m 4,8 km/h (1 Bft)
05.04.2014 14:00 15,4 C 15,9 C 76 % 1015,4 hPa 0,0 l/m 0,03 h 0,00 h 0,8 UV-I 275 W/m 4,3 km/h (1 Bft)
05.04.2014 15:00 15,3 C 15,7 C 75 % 1015,4 hPa 0,0 l/m 0,10 h 0,00 h 0,7 UV-I 238 W/m 4,5 km/h (1 Bft)
05.04.2014 16:00 16,4 C 16,6 C 70 % 1015,3 hPa 0,0 l/m 0,50 h 0,00 h 0,8 UV-I 308 W/m 3,1 km/h (1 Bft)
05.04.2014 17:00 16,4 C 15,8 C 70 % 1015,2 hPa 0,0 l/m 0,53 h 0,00 h 0,5 UV-I 248 W/m 1,4 km/h (1 Bft)
05.04.2014 18:00 16,6 C 15,2 C 68 % 1015,4 hPa 0,0 l/m 0,17 h 0,00 h 0,0 UV-I 126 W/m 2,7 km/h (1 Bft)
05.04.2014 19:00 15,4 C 13,3 C 70 % 1015,6 hPa 0,0 l/m 0,00 h 0,00 h 0,0 UV-I 32 W/m 1,4 km/h (1 Bft)
05.04.2014 20:00 13,4 C 10,5 C 77 % 1015,9 hPa 0,0 l/m 0,00 h 0,00 h 0,0 UV-I 7 W/m 0,0 km/h (0 Bft)
05.04.2014 21:00 11,9 C 9,0 C 83 % 1016,4 hPa 0,0 l/m 0,00 h 0,00 h 0,0 UV-I 0 W/m 0,0 km/h (0 Bft)
05.04.2014 22:00 11,1 C 8,4 C 86 % 1016,6 hPa 0,0 l/m 0,00 h 0,00 h 0,0 UV-I 0 W/m 0,0 km/h (0 Bft)
05.04.2014 23:00 10,3 C 8,0 C 88 % 1016,7 hPa 0,0 l/m 0,00 h 0,00 h 0,0 UV-I 0 W/m 0,0 km/h (0 Bft)
06.04.2014 00:00 9,3 C 7,2 C 91 % 1017,0 hPa 0,0 l/m 0,00 h 0,00 h 0,0 UV-I 0 W/m 0,2 km/h (0 Bft)
06.04.2014 01:00 9,0 C 7,0 C 93 % 1017,1 hPa 0,0 l/m 0,00 h 0,00 h 0,0 UV-I 0 W/m 0,1 km/h (0 Bft)
06.04.2014 02:00 8,6 C 6,7 C 94 % 1017,0 hPa 0,0 l/m 0,00 h 0,00 h 0,0 UV-I 0 W/m 0,0 km/h (0 Bft)
06.04.2014 03:00 8,0 C 6,2 C 94 % 1016,7 hPa 0,0 l/m 0,00 h 0,00 h 0,0 UV-I 0 W/m 0,1 km/h (0 Bft)
06.04.2014 04:00 7,3 C 5,8 C 96 % 1016,5 hPa 0,0 l/m 0,00 h 0,00 h 0,0 UV-I 0 W/m 0,0 km/h (0 Bft)
06.04.2014 05:00 6,9 C 5,6 C 96 % 1016,6 hPa 0,0 l/m 0,00 h 0,00 h 0,0 UV-I 0 W/m 0,4 km/h (0 Bft)
06.04.2014 06:00 6,5 C 5,4 C 97 % 1016,6 hPa 0,0 l/m 0,00 h 0,00 h 0,0 UV-I 0 W/m 2,8 km/h (1 Bft)
06.04.2014 07:00 6,4 C 5,3 C 97 % 1016,8 hPa 0,0 l/m 0,00 h 0,00 h 0,0 UV-I 19 W/m 1,6 km/h (1 Bft)
06.04.2014 08:00 7,8 C 6,9 C 96 % 1017,0 hPa 0,0 l/m 0,37 h 0,00 h 0,0 UV-I 111 W/m 5,3 km/h (1 Bft)
06.04.2014 09:00 11,4 C 10,0 C 87 % 1017,0 hPa 0,0 l/m 0,50 h 0,00 h 0,0 UV-I 209 W/m 2,1 km/h (1 Bft)
06.04.2014 10:00 15,0 C 14,0 C 78 % 1017,1 hPa 0,0 l/m 0,93 h 0,00 h 0,9 UV-I 415 W/m 6,5 km/h (2 Bft)
06.04.2014 11:00 17,3 C 16,7 C 70 % 1017,0 hPa 0,0 l/m 0,40 h 0,00 h 1,0 UV-I 375 W/m 10,5 km/h (2 Bft)
06.04.2014 12:00 17,4 C 17,0 C 69 % 1016,9 hPa 0,0 l/m 0,13 h 0,27 h 0,9 UV-I 287 W/m 12,1 km/h (2 Bft)
06.04.2014 13:00 17,0 C 15,7 C 74 % 1017,0 hPa 0,0 l/m 0,00 h 0,53 h 0,7 UV-I 226 W/m 10,1 km/h (2 Bft)
06.04.2014 14:00 17,3 C 16,4 C 71 % 1016,8 hPa 0,0 l/m 0,00 h 0,30 h 0,7 UV-I 216 W/m 12,2 km/h (2 Bft)
06.04.2014 15:00 17,6 C 17,1 C 68 % 1016,7 hPa 0,0 l/m 0,00 h 0,03 h 0,7 UV-I 257 W/m 13,8 km/h (3 Bft)
06.04.2014 16:00 18,2 C 17,8 C 66 % 1016,3 hPa 0,0 l/m 0,40 h 0,00 h 0,8 UV-I 298 W/m 13,6 km/h (3 Bft)
06.04.2014 17:00 18,6 C 17,8 C 66 % 1016,0 hPa 0,0 l/m 0,17 h 0,00 h 0,6 UV-I 201 W/m 10,6 km/h (2 Bft)
06.04.2014 18:00 18,2 C 16,8 C 68 % 1016,1 hPa 0,0 l/m 0,00 h 0,00 h 0,0 UV-I 65 W/m 11,3 km/h (2 Bft)
06.04.2014 19:00 17,6 C 15,8 C 71 % 1016,2 hPa 0,0 l/m 0,00 h 0,00 h 0,0 UV-I 13 W/m 5,7 km/h (1 Bft)
06.04.2014 20:00 17,2 C 15,1 C 74 % 1016,4 hPa 0,0 l/m 0,00 h 0,00 h 0,0 UV-I 0 W/m 3,6 km/h (1 Bft)
06.04.2014 21:00 16,9 C 14,8 C 75 % 1016,8 hPa 0,0 l/m 0,00 h 0,00 h 0,0 UV-I 0 W/m 3,0 km/h (1 Bft)
06.04.2014 22:00 16,5 C 14,3 C 77 % 1016,8 hPa 0,0 l/m 0,00 h 0,00 h 0,0 UV-I 0 W/m 3,0 km/h (1 Bft)
06.04.2014 23:00 16,0 C 13,9 C 79 % 1016,9 hPa 0,0 l/m 0,00 h 0,00 h 0,0 UV-I 0 W/m 2,5 km/h (1 Bft)
Min-Datum _ 06.04.14 06.04.14 31.03.14 03.04.14 - - - - - 31.03.14
_ Min-Zeit 06:56 06:38 17:06 14:06 - - - - - 00:00
Minimum _ 6,3 C 5,0 C 40 % 1001,8 hPa - - - - - 0,0 km/h (0 Bft)
Max-Datum _ 03.04.14 02.04.14 06.04.14 06.04.14 31.03.14 31.03.14 31.03.14 03.04.14 06.04.14 03.04.14
_ Max-Zeit 14:10 15:12 05:40 01:28 00:00 09:40 23:40 13:56 11:14 12:50
Maximum _ 23,4 C 26,1 C 97 % 1017,2 hPa 0,0 l/m 0,03 h 0,03 h 2,4 UV-I 770 W/m 30,9 km/h
S-SO (5 Bft)
Durchschnitt _ 14,5 C 12,8 C 74 % 1010,2 hPa #0,0 l/m #30:48 h #2:04 h 0,9 UV-I 221 W/m 2,6 km/h (1 Bft)
© 2014 W. Hausmann